createdAt,value
2023-01-19T00:00:55.751Z,45.92
2023-01-19T00:03:22.848Z,46.05
2023-01-19T00:05:50.233Z,46.05
2023-01-19T00:08:17.852Z,46.22
2023-01-19T00:10:48.461Z,44.35
2023-01-19T00:13:15.758Z,45.28
2023-01-19T00:15:43.300Z,46.30
2023-01-19T00:18:11.193Z,46.65
2023-01-19T00:20:39.945Z,45.50
2023-01-19T00:23:10.554Z,46.05
2023-01-19T00:25:42.598Z,46.78
2023-01-19T00:28:15.896Z,44.85
2023-01-19T00:30:43.927Z,41.47
2023-01-19T00:33:14.574Z,46.08
2023-01-19T00:35:42.728Z,44.25
2023-01-19T00:38:12.038Z,46.70
2023-01-19T00:40:39.161Z,44.45
2023-01-19T00:43:06.175Z,44.47
2023-01-19T00:45:34.010Z,45.15
2023-01-19T00:48:01.364Z,45.05
2023-01-19T00:50:30.276Z,44.88
2023-01-19T00:53:01.256Z,43.17
2023-01-19T00:55:30.546Z,43.03
2023-01-19T00:57:58.833Z,43.72
2023-01-19T01:00:26.430Z,45.00
2023-01-19T01:02:54.300Z,42.83
2023-01-19T01:05:21.898Z,43.88
2023-01-19T01:07:49.946Z,42.35
2023-01-19T01:10:27.728Z,43.15
2023-01-19T01:13:22.226Z,43.45
2023-01-19T01:15:44.306Z,41.88
2023-01-19T01:18:11.266Z,43.45
2023-01-19T01:20:38.237Z,42.55
2023-01-19T01:23:05.235Z,42.17
2023-01-19T01:25:34.192Z,42.22
2023-01-19T01:28:05.167Z,41.22
2023-01-19T01:30:32.147Z,44.72
2023-01-19T01:32:59.753Z,42.97
2023-01-19T01:35:27.341Z,42.85
2023-01-19T01:37:58.815Z,41.20
2023-01-19T01:40:25.910Z,41.33
2023-01-19T01:42:53.190Z,41.25
2023-01-19T01:45:34.985Z,39.40
2023-01-19T01:48:25.695Z,40.28
2023-01-19T01:51:19.558Z,36.28
2023-01-19T01:53:54.735Z,37.28
2023-01-19T01:56:40.041Z,34.88
2023-01-19T01:59:18.048Z,35.60
2023-01-19T02:02:03.775Z,35.25
2023-01-19T02:04:31.984Z,33.95
2023-01-19T02:07:17.453Z,34.60
2023-01-19T02:10:03.388Z,33.55
2023-01-19T02:12:49.431Z,39.92
2023-01-19T02:15:20.210Z,40.42
2023-01-19T02:17:48.116Z,40.25
2023-01-19T02:20:16.224Z,44.67
2023-01-19T02:22:49.955Z,39.30
2023-01-19T02:25:20.273Z,36.30
2023-01-19T02:27:48.395Z,40.05
2023-01-19T02:30:16.853Z,35.55
2023-01-19T02:32:44.567Z,35.90
2023-01-19T02:35:13.056Z,36.67
2023-01-19T02:37:42.285Z,32.03
2023-01-19T02:40:14.635Z,27.85
2023-01-19T02:42:49.112Z,31.30
2023-01-19T02:45:21.521Z,31.42
2023-01-19T02:47:52.010Z,28.73
2023-01-19T02:50:50.784Z,29.38
2023-01-19T02:53:32.988Z,30.10
2023-01-19T02:56:26.792Z,28.88
2023-01-19T02:59:33.906Z,30.02
2023-01-19T03:02:26.869Z,25.55
2023-01-19T03:05:26.274Z,26.73
2023-01-19T03:08:22.975Z,25.98
2023-01-19T03:11:08.212Z,22.20
2023-01-19T03:13:53.124Z,23.05
2023-01-19T03:16:22.903Z,21.73
2023-01-19T03:19:10.083Z,22.10
2023-01-19T03:21:42.932Z,19.83
2023-01-19T03:24:13.575Z,18.77
2023-01-19T03:26:49.993Z,19.08
2023-01-19T03:29:19.895Z,20.45
2023-01-19T03:31:50.585Z,18.30
2023-01-19T03:34:22.144Z,18.58
2023-01-19T03:36:57.224Z,20.10
2023-01-19T03:39:27.134Z,20.55
2023-01-19T03:41:59.802Z,18.42
2023-01-19T03:44:29.811Z,18.90
2023-01-19T03:46:59.152Z,20.70
2023-01-19T03:49:27.094Z,19.35
2023-01-19T03:51:59.012Z,20.42
2023-01-19T03:54:27.255Z,21.38
2023-01-19T03:56:54.475Z,19.45
2023-01-19T03:59:22.026Z,19.67
2023-01-19T04:01:49.923Z,22.33
2023-01-19T04:04:17.230Z,20.00
2023-01-19T04:06:44.453Z,20.63
2023-01-19T04:09:11.797Z,22.17
2023-01-19T04:11:39.041Z,21.60
2023-01-19T04:14:06.070Z,19.92
2023-01-19T04:16:33.197Z,21.40
2023-01-19T04:19:00.286Z,21.38
2023-01-19T04:21:27.440Z,21.83
2023-01-19T04:23:54.608Z,19.23
2023-01-19T04:26:21.621Z,20.75
2023-01-19T04:28:49.273Z,21.15
2023-01-19T04:31:16.276Z,22.17
2023-01-19T04:33:43.251Z,22.25
2023-01-19T04:36:10.388Z,22.60
2023-01-19T04:38:37.565Z,21.75
2023-01-19T04:41:04.792Z,22.08
2023-01-19T04:43:31.927Z,23.33
2023-01-19T04:45:59.321Z,21.73
2023-01-19T04:48:26.436Z,21.08
2023-01-19T04:50:53.957Z,21.73
2023-01-19T04:53:20.978Z,22.05
2023-01-19T04:55:48.166Z,20.67
2023-01-19T04:58:15.283Z,20.42
2023-01-19T05:00:44.322Z,18.63
2023-01-19T05:03:11.674Z,19.90
2023-01-19T05:05:38.759Z,19.75
2023-01-19T05:08:06.058Z,18.70
2023-01-19T05:10:33.124Z,17.88
2023-01-19T05:13:00.455Z,17.77
2023-01-19T05:15:28.125Z,17.33
2023-01-19T05:17:57.935Z,16.58
2023-01-19T05:20:25.665Z,17.38
2023-01-19T05:22:53.529Z,18.83
2023-01-19T05:25:20.708Z,17.10
2023-01-19T05:27:48.080Z,16.73
2023-01-19T05:30:15.476Z,18.80
2023-01-19T05:32:42.526Z,20.08
2023-01-19T05:35:10.267Z,18.23
2023-01-19T05:37:37.338Z,19.77
2023-01-19T05:40:05.687Z,19.02
2023-01-19T05:42:33.067Z,18.85
2023-01-19T05:45:00.575Z,19.73
2023-01-19T05:47:30.071Z,22.05
2023-01-19T05:49:58.023Z,22.33
2023-01-19T05:52:25.232Z,21.17
2023-01-19T05:54:52.574Z,22.77
2023-01-19T05:57:19.578Z,23.17
2023-01-19T05:59:46.858Z,22.05
2023-01-19T06:02:14.172Z,22.50
2023-01-19T06:04:41.381Z,22.17
2023-01-19T06:07:08.369Z,24.35
2023-01-19T06:09:35.816Z,23.00
2023-01-19T06:12:03.107Z,23.80
2023-01-19T06:14:30.755Z,23.58
2023-01-19T06:16:57.906Z,23.55
2023-01-19T06:19:24.922Z,20.77
2023-01-19T06:21:53.417Z,16.98
2023-01-19T06:24:20.528Z,22.15
2023-01-19T06:26:47.605Z,20.55
2023-01-19T06:29:15.217Z,16.65
2023-01-19T06:31:42.965Z,15.80
2023-01-19T06:34:10.493Z,10.80
2023-01-19T06:36:37.590Z,8.43
2023-01-19T06:39:06.299Z,9.90
2023-01-19T06:41:34.723Z,8.02
2023-01-19T06:44:02.848Z,7.63
2023-01-19T06:46:30.247Z,7.47
2023-01-19T06:48:57.420Z,7.22
2023-01-19T06:51:25.544Z,6.85
2023-01-19T06:53:52.869Z,7.95
2023-01-19T06:56:20.241Z,7.53
2023-01-19T06:58:48.529Z,8.02
2023-01-19T07:01:15.853Z,7.80
2023-01-19T07:03:44.467Z,8.00
2023-01-19T07:06:12.654Z,7.70
2023-01-19T07:08:40.527Z,7.95
2023-01-19T07:11:25.779Z,8.73
2023-01-19T07:13:58.287Z,9.05
2023-01-19T07:16:25.640Z,7.97
2023-01-19T07:18:52.786Z,7.95
2023-01-19T07:21:19.989Z,8.45
2023-01-19T07:23:53.082Z,8.35
2023-01-19T07:26:21.569Z,9.10
2023-01-19T07:28:49.330Z,8.45
2023-01-19T07:31:17.955Z,8.80
2023-01-19T07:33:45.791Z,8.10
2023-01-19T07:36:13.714Z,8.13
2023-01-19T07:38:41.878Z,9.82
2023-01-19T07:41:11.056Z,8.45
2023-01-19T07:43:38.334Z,8.32
2023-01-19T07:46:07.239Z,7.35
2023-01-19T07:48:34.927Z,6.25
2023-01-19T07:51:13.058Z,6.15
2023-01-19T07:53:42.181Z,7.30
2023-01-19T07:56:10.913Z,5.38
2023-01-19T07:58:39.401Z,7.60
2023-01-19T08:01:13.076Z,6.95
2023-01-19T08:03:40.648Z,8.38
2023-01-19T08:06:23.850Z,8.00
2023-01-19T08:08:51.182Z,7.47
2023-01-19T08:11:18.332Z,6.25
2023-01-19T08:13:45.377Z,6.90
2023-01-19T08:16:12.518Z,7.28
2023-01-19T08:18:39.790Z,6.72
2023-01-19T08:21:06.941Z,6.07
2023-01-19T08:23:34.292Z,5.80
2023-01-19T08:26:01.539Z,7.07
2023-01-19T08:28:28.588Z,7.13
2023-01-19T08:30:55.757Z,7.35
2023-01-19T08:33:24.368Z,7.47
2023-01-19T08:35:53.562Z,7.13
2023-01-19T08:38:20.767Z,7.82
2023-01-19T08:40:49.162Z,7.45
2023-01-19T08:43:17.947Z,7.00
2023-01-19T08:45:52.467Z,7.00
2023-01-19T08:48:22.801Z,8.18
2023-01-19T08:50:51.697Z,8.23
2023-01-19T08:53:21.133Z,8.32
2023-01-19T08:55:48.263Z,8.02
2023-01-19T08:58:16.187Z,9.02
2023-01-19T09:00:43.201Z,8.05
2023-01-19T09:03:13.983Z,8.18
2023-01-19T09:05:41.157Z,10.07
2023-01-19T09:08:11.525Z,12.55
2023-01-19T09:10:40.045Z,14.30
2023-01-19T09:13:11.071Z,7.20
2023-01-19T09:15:42.341Z,7.25
2023-01-19T09:18:13.848Z,7.93
2023-01-19T09:20:42.872Z,8.63
2023-01-19T09:23:15.356Z,10.80
2023-01-19T09:25:45.480Z,11.43
2023-01-19T09:28:16.192Z,10.50
2023-01-19T09:30:44.772Z,9.95
2023-01-19T09:33:15.381Z,12.70
2023-01-19T09:35:45.152Z,9.00
2023-01-19T09:38:13.462Z,7.20
2023-01-19T09:40:52.618Z,6.95
2023-01-19T09:43:40.144Z,8.00
2023-01-19T09:46:15.873Z,7.72
2023-01-19T09:48:53.559Z,8.65
2023-01-19T09:51:44.734Z,16.60
2023-01-19T09:54:20.869Z,10.27
2023-01-19T09:56:52.735Z,9.70
2023-01-19T09:59:27.473Z,7.45
2023-01-19T10:02:14.457Z,6.57
2023-01-19T10:05:02.624Z,6.88
2023-01-19T10:08:03.600Z,6.40
2023-01-19T10:10:32.630Z,8.70
2023-01-19T10:13:17.759Z,7.57
2023-01-19T10:16:12.998Z,6.95
2023-01-19T10:18:48.017Z,7.63
2023-01-19T10:21:21.775Z,6.53
2023-01-19T10:24:13.655Z,6.97
2023-01-19T10:26:49.913Z,6.68
2023-01-19T10:29:27.531Z,6.57
2023-01-19T10:32:17.335Z,5.97
2023-01-19T10:34:44.556Z,5.75
2023-01-19T10:37:17.663Z,4.68
2023-01-19T10:39:47.881Z,4.47
2023-01-19T10:42:17.496Z,5.72
2023-01-19T10:44:46.052Z,5.97
2023-01-19T10:47:20.796Z,6.93
2023-01-19T10:49:48.992Z,7.45
2023-01-19T10:52:36.659Z,6.82
2023-01-19T10:55:07.713Z,9.45
2023-01-19T10:57:39.010Z,9.45
2023-01-19T11:00:40.250Z,9.73
2023-01-19T11:03:30.000Z,7.80
2023-01-19T11:06:15.596Z,6.97
2023-01-19T11:08:45.535Z,5.72
2023-01-19T11:11:13.523Z,4.97
2023-01-19T11:13:42.542Z,5.22
2023-01-19T11:16:25.924Z,4.75
2023-01-19T11:18:55.968Z,4.80
2023-01-19T11:21:27.338Z,3.80
2023-01-19T11:24:05.440Z,4.68
2023-01-19T11:26:44.419Z,2.97
2023-01-19T11:29:30.643Z,2.97
2023-01-19T11:32:12.301Z,3.30
2023-01-19T11:34:39.485Z,3.40
2023-01-19T11:37:31.845Z,3.65
2023-01-19T11:40:02.623Z,3.38
2023-01-19T11:42:33.996Z,4.32
2023-01-19T11:45:18.271Z,3.42
2023-01-19T11:47:50.383Z,3.90
2023-01-19T11:50:25.791Z,3.38
2023-01-19T11:53:04.881Z,3.10
2023-01-19T11:55:51.253Z,3.60
2023-01-19T11:58:20.229Z,4.15
2023-01-19T12:01:07.276Z,4.17
2023-01-19T12:03:41.265Z,4.47
2023-01-19T12:06:20.665Z,4.50
2023-01-19T12:08:56.098Z,4.47
2023-01-19T12:11:31.680Z,4.82
2023-01-19T12:14:00.610Z,4.68
2023-01-19T12:16:33.093Z,4.30
2023-01-19T12:19:16.325Z,4.35
2023-01-19T12:21:48.202Z,4.97
2023-01-19T12:24:39.443Z,4.72
2023-01-19T12:27:25.426Z,4.75
2023-01-19T12:29:54.941Z,5.53
2023-01-19T12:32:35.125Z,5.22
2023-01-19T12:35:02.350Z,5.20
2023-01-19T12:37:35.534Z,5.82
2023-01-19T12:40:30.261Z,5.53
2023-01-19T12:43:04.359Z,5.60
2023-01-19T12:45:36.795Z,5.00
2023-01-19T12:48:05.460Z,6.63
2023-01-19T12:50:38.094Z,6.47
2023-01-19T12:53:20.718Z,8.65
2023-01-19T12:56:00.333Z,6.55
2023-01-19T12:58:27.829Z,7.10
2023-01-19T13:01:18.877Z,6.40
2023-01-19T13:04:09.777Z,6.60
2023-01-19T13:06:48.773Z,6.95
2023-01-19T13:09:39.510Z,7.70
2023-01-19T13:12:24.444Z,6.43
2023-01-19T13:15:28.442Z,7.18
2023-01-19T13:17:56.761Z,7.88
2023-01-19T13:20:57.381Z,9.35
2023-01-19T13:23:30.227Z,8.23
2023-01-19T13:26:06.743Z,7.38
2023-01-19T13:28:43.589Z,7.78
2023-01-19T13:31:12.420Z,7.22
2023-01-19T13:33:56.681Z,8.40
2023-01-19T13:36:33.521Z,8.20
2023-01-19T13:39:05.224Z,10.05
2023-01-19T13:41:38.673Z,9.07
2023-01-19T13:44:14.769Z,10.53
2023-01-19T13:46:42.144Z,10.13
2023-01-19T13:49:28.987Z,8.13
2023-01-19T13:52:30.583Z,8.57
2023-01-19T13:55:02.769Z,8.40
2023-01-19T13:57:45.940Z,8.88
2023-01-19T14:00:17.077Z,9.63
2023-01-19T14:02:53.706Z,7.72
2023-01-19T14:05:35.257Z,8.30
2023-01-19T14:08:08.241Z,8.90
2023-01-19T14:10:40.985Z,8.98
2023-01-19T14:13:27.286Z,7.40
2023-01-19T14:15:58.528Z,8.10
2023-01-19T14:18:30.947Z,8.25
2023-01-19T14:21:15.059Z,8.70
2023-01-19T14:24:08.407Z,8.05
2023-01-19T14:26:56.284Z,9.00
2023-01-19T14:29:38.078Z,7.30
2023-01-19T14:32:23.933Z,9.00
2023-01-19T14:35:04.539Z,8.50
2023-01-19T14:37:35.506Z,10.30
2023-01-19T14:40:18.548Z,10.07
2023-01-19T14:43:00.200Z,12.55
2023-01-19T14:45:36.608Z,9.55
2023-01-19T14:48:20.475Z,10.80
2023-01-19T14:51:02.320Z,11.60
2023-01-19T14:53:37.279Z,9.95
2023-01-19T14:56:07.379Z,9.95
2023-01-19T14:58:36.357Z,10.88
2023-01-19T15:01:06.443Z,10.35
2023-01-19T15:03:44.026Z,9.57
2023-01-19T15:06:19.553Z,9.18
2023-01-19T15:11:22.908Z,10.63
2023-01-19T15:13:50.880Z,10.17
2023-01-19T15:16:18.314Z,10.90
2023-01-19T15:18:45.390Z,11.27
2023-01-19T15:21:19.559Z,11.52
2023-01-19T15:23:47.685Z,10.10
2023-01-19T15:26:21.397Z,12.02
2023-01-19T15:28:49.306Z,10.82
2023-01-19T15:31:22.103Z,10.45
2023-01-19T15:33:49.596Z,10.63
2023-01-19T15:36:22.375Z,12.13
2023-01-19T15:38:51.106Z,11.97
2023-01-19T15:41:29.786Z,11.68
2023-01-19T15:43:57.223Z,10.98
2023-01-19T15:46:29.675Z,11.75
2023-01-19T15:48:57.281Z,9.63
2023-01-19T15:51:26.193Z,11.75
2023-01-19T15:53:55.010Z,11.60
2023-01-19T15:56:28.347Z,12.05
2023-01-19T15:58:56.269Z,11.98
2023-01-19T16:01:31.622Z,12.95
2023-01-19T16:04:01.576Z,8.95
2023-01-19T16:06:30.502Z,11.50
2023-01-19T16:09:01.196Z,11.60
2023-01-19T16:11:33.472Z,10.18
2023-01-19T16:14:01.198Z,11.20
2023-01-19T16:16:28.254Z,12.13
2023-01-19T16:18:55.968Z,12.68
2023-01-19T16:21:24.274Z,11.05
2023-01-19T16:23:52.191Z,11.95
2023-01-19T16:26:37.398Z,12.32
2023-01-19T16:29:10.956Z,11.05
2023-01-19T16:31:40.599Z,10.13
2023-01-19T16:34:09.397Z,10.02
2023-01-19T16:36:40.606Z,10.85
2023-01-19T16:39:13.499Z,11.27
2023-01-19T16:41:42.045Z,10.98
2023-01-19T16:44:12.741Z,11.73
2023-01-19T16:46:42.727Z,11.70
2023-01-19T16:49:17.023Z,12.10
2023-01-19T16:51:44.264Z,11.27
2023-01-19T16:54:15.147Z,12.02
2023-01-19T16:56:42.812Z,11.98
2023-01-19T16:59:12.735Z,12.20
2023-01-19T17:01:40.486Z,12.88
2023-01-19T17:04:07.954Z,13.55
2023-01-19T17:06:35.236Z,14.18
2023-01-19T17:09:02.945Z,14.20
2023-01-19T17:11:32.147Z,15.60
2023-01-19T17:14:14.072Z,15.18
2023-01-19T17:16:43.168Z,17.15
2023-01-19T17:19:16.547Z,16.83
2023-01-19T17:21:51.053Z,17.03
2023-01-19T17:24:18.443Z,16.50
2023-01-19T17:26:48.591Z,15.07
2023-01-19T17:29:16.639Z,15.38
2023-01-19T17:31:44.544Z,18.60
2023-01-19T17:34:11.732Z,19.77
2023-01-19T17:36:40.961Z,16.35
2023-01-19T17:39:14.531Z,17.63
2023-01-19T17:41:41.700Z,16.45
2023-01-19T17:44:10.506Z,18.65
2023-01-19T17:46:39.358Z,15.60
2023-01-19T17:49:07.958Z,19.40
2023-01-19T17:51:35.687Z,19.15
2023-01-19T17:54:04.200Z,19.30
2023-01-19T17:56:36.797Z,18.00
2023-01-19T17:59:06.604Z,15.88
2023-01-19T18:01:37.084Z,17.15
2023-01-19T18:04:04.352Z,16.42
2023-01-19T18:06:31.352Z,16.63
2023-01-19T18:09:01.766Z,18.08
2023-01-19T18:11:29.344Z,17.48
2023-01-19T18:13:56.344Z,18.98
2023-01-19T18:16:26.488Z,18.80
2023-01-19T18:18:55.352Z,20.88
2023-01-19T18:21:24.239Z,19.38
2023-01-19T18:23:51.700Z,17.20
2023-01-19T18:26:22.342Z,17.02
2023-01-19T18:28:49.700Z,16.88
2023-01-19T18:31:19.222Z,13.98
2023-01-19T18:33:48.326Z,14.73
2023-01-19T18:36:16.669Z,13.82
2023-01-19T18:38:44.406Z,17.35
2023-01-19T18:41:14.963Z,15.98
2023-01-19T18:43:42.929Z,14.45
2023-01-19T18:46:10.417Z,14.27
2023-01-19T18:48:39.065Z,15.75
2023-01-19T18:51:13.898Z,15.38
2023-01-19T18:53:41.587Z,13.57
2023-01-19T18:56:12.148Z,13.70
2023-01-19T18:58:40.178Z,14.70
2023-01-19T19:01:33.335Z,14.93
2023-01-19T19:04:00.911Z,12.25
2023-01-19T19:06:28.158Z,12.63
2023-01-19T19:08:58.215Z,11.77
2023-01-19T19:11:26.627Z,11.15
2023-01-19T19:13:56.887Z,11.43
2023-01-19T19:16:27.023Z,12.25
2023-01-19T19:19:00.324Z,13.15
2023-01-19T19:21:33.262Z,12.50
2023-01-19T19:24:04.137Z,12.23
2023-01-19T19:26:35.874Z,11.63
2023-01-19T19:29:04.613Z,11.75
2023-01-19T19:31:32.169Z,12.23
2023-01-19T19:33:59.865Z,15.18
2023-01-19T19:36:28.594Z,18.27
2023-01-19T19:38:55.710Z,18.27
2023-01-19T19:41:29.359Z,17.63
2023-01-19T19:43:56.607Z,18.08
2023-01-19T19:46:27.728Z,16.08
2023-01-19T19:48:55.115Z,18.63
2023-01-19T19:51:26.957Z,16.48
2023-01-19T19:53:56.849Z,18.23
2023-01-19T19:56:26.279Z,18.33
2023-01-19T19:58:56.175Z,20.15
2023-01-19T20:01:32.661Z,19.65
2023-01-19T20:04:08.546Z,20.92
2023-01-19T20:06:39.936Z,22.27
2023-01-19T20:09:10.470Z,21.33
2023-01-19T20:11:37.590Z,23.50
2023-01-19T20:14:06.697Z,22.70
2023-01-19T20:16:33.913Z,22.63
2023-01-19T20:19:01.486Z,21.15
2023-01-19T20:21:32.243Z,20.75
2023-01-19T20:24:02.305Z,21.45
2023-01-19T20:26:33.493Z,20.13
2023-01-19T20:29:06.127Z,21.63
2023-01-19T20:31:46.691Z,23.52
2023-01-19T20:34:16.792Z,23.35
2023-01-19T20:36:46.898Z,24.80
2023-01-19T20:39:13.846Z,22.85
2023-01-19T20:41:45.033Z,24.38
2023-01-19T20:44:14.844Z,29.02
2023-01-19T20:46:42.455Z,22.90
2023-01-19T20:49:10.204Z,24.80
2023-01-19T20:51:39.752Z,26.27
2023-01-19T20:54:06.631Z,26.08
2023-01-19T20:56:33.540Z,25.77
2023-01-19T20:59:02.068Z,24.92
2023-01-19T21:01:29.071Z,26.45
2023-01-19T21:03:56.207Z,24.45
2023-01-19T21:06:23.536Z,25.35
2023-01-19T21:08:51.196Z,25.35
2023-01-19T21:11:21.058Z,26.60
2023-01-19T21:13:49.121Z,25.73
2023-01-19T21:16:16.499Z,23.45
2023-01-19T21:18:43.908Z,24.33
2023-01-19T21:21:28.497Z,26.00
2023-01-19T21:23:58.440Z,23.38
2023-01-19T21:26:25.518Z,25.60
2023-01-19T21:28:52.568Z,25.42
2023-01-19T21:31:21.448Z,25.08
2023-01-19T21:33:49.297Z,24.58
2023-01-19T21:36:16.236Z,23.80
2023-01-19T21:38:43.176Z,22.15
2023-01-19T21:41:12.757Z,22.90
2023-01-19T21:43:42.625Z,21.90
2023-01-19T21:46:16.659Z,24.35
2023-01-19T21:48:44.003Z,24.83
2023-01-19T21:51:11.037Z,24.25
2023-01-19T21:53:38.424Z,24.55
2023-01-19T21:56:20.776Z,23.73
2023-01-19T21:58:47.823Z,22.05
2023-01-19T22:01:14.884Z,23.77
2023-01-19T22:03:42.889Z,21.02
2023-01-19T22:06:14.306Z,24.45
2023-01-19T22:08:42.625Z,23.88
2023-01-19T22:11:12.410Z,24.98
2023-01-19T22:13:40.290Z,24.40
2023-01-19T22:16:17.350Z,25.60
2023-01-19T22:18:50.228Z,25.73
2023-01-19T22:21:21.244Z,25.52
2023-01-19T22:23:54.416Z,24.77
2023-01-19T22:26:22.452Z,22.77
2023-01-19T22:28:55.055Z,24.02
2023-01-19T22:31:24.023Z,24.65
2023-01-19T22:33:51.366Z,25.63
2023-01-19T22:36:30.768Z,23.55
2023-01-19T22:39:01.026Z,24.92
2023-01-19T22:41:36.900Z,25.00
2023-01-19T22:44:07.641Z,25.75
2023-01-19T22:46:36.662Z,25.63
2023-01-19T22:49:05.289Z,26.95
2023-01-19T22:51:32.678Z,23.98
2023-01-19T22:54:00.801Z,25.33
2023-01-19T22:56:30.786Z,25.75
2023-01-19T22:58:58.777Z,25.70
2023-01-19T23:01:40.703Z,25.98
2023-01-19T23:04:12.024Z,25.98
2023-01-19T23:06:39.314Z,26.05
2023-01-19T23:09:11.978Z,27.27
2023-01-19T23:11:42.897Z,25.00
2023-01-19T23:14:16.238Z,24.83
2023-01-19T23:16:43.256Z,26.27
2023-01-19T23:19:12.231Z,26.38
2023-01-19T23:21:40.475Z,26.70
2023-01-19T23:24:08.433Z,26.40
2023-01-19T23:26:38.313Z,27.73
2023-01-19T23:29:14.624Z,26.55
2023-01-19T23:31:49.159Z,24.13
2023-01-19T23:34:17.301Z,24.75
2023-01-19T23:36:45.076Z,24.65
2023-01-19T23:39:20.400Z,26.73
2023-01-19T23:41:48.017Z,28.42
2023-01-19T23:44:15.871Z,27.77
2023-01-19T23:46:43.920Z,24.80
2023-01-19T23:49:12.033Z,26.63
2023-01-19T23:51:39.931Z,27.85
2023-01-19T23:54:07.205Z,28.20
2023-01-19T23:56:37.287Z,28.27
2023-01-19T23:59:08.575Z,27.50
